sensor_id;sensor_type;location;lat;lon;timestamp;temperature;humidity
25918;DHT22;13899;51.174;4.456;2024-02-21T00:01:47;9.60;99.90
25918;DHT22;13899;51.174;4.456;2024-02-21T00:04:13;9.60;99.90
25918;DHT22;13899;51.174;4.456;2024-02-21T00:06:38;9.60;99.90
25918;DHT22;13899;51.174;4.456;2024-02-21T00:09:04;9.50;99.90
25918;DHT22;13899;51.174;4.456;2024-02-21T00:11:30;9.50;99.90
25918;DHT22;13899;51.174;4.456;2024-02-21T00:13:55;9.40;99.90
25918;DHT22;13899;51.174;4.456;2024-02-21T00:16:21;9.50;99.90
25918;DHT22;13899;51.174;4.456;2024-02-21T00:18:48;9.40;99.90
25918;DHT22;13899;51.174;4.456;2024-02-21T00:21:14;9.40;99.90
25918;DHT22;13899;51.174;4.456;2024-02-21T00:23:46;9.40;99.90
25918;DHT22;13899;51.174;4.456;2024-02-21T00:26:12;9.40;99.90
25918;DHT22;13899;51.174;4.456;2024-02-21T00:28:38;9.40;99.90
25918;DHT22;13899;51.174;4.456;2024-02-21T00:31:04;9.40;99.90
25918;DHT22;13899;51.174;4.456;2024-02-21T00:33:30;9.40;99.90
25918;DHT22;13899;51.174;4.456;2024-02-21T00:35:56;9.40;99.90
25918;DHT22;13899;51.174;4.456;2024-02-21T00:38:21;9.40;99.90
25918;DHT22;13899;51.174;4.456;2024-02-21T00:40:46;9.40;99.90
25918;DHT22;13899;51.174;4.456;2024-02-21T00:43:12;9.30;99.90
25918;DHT22;13899;51.174;4.456;2024-02-21T00:45:38;9.30;99.90
25918;DHT22;13899;51.174;4.456;2024-02-21T00:48:03;9.20;99.90
25918;DHT22;13899;51.174;4.456;2024-02-21T00:50:29;9.20;99.90
25918;DHT22;13899;51.174;4.456;2024-02-21T00:52:55;9.20;99.90
25918;DHT22;13899;51.174;4.456;2024-02-21T00:55:20;9.20;99.90
25918;DHT22;13899;51.174;4.456;2024-02-21T00:57:46;9.20;99.90
25918;DHT22;13899;51.174;4.456;2024-02-21T01:00:11;9.10;99.90
25918;DHT22;13899;51.174;4.456;2024-02-21T01:02:37;9.10;99.90
25918;DHT22;13899;51.174;4.456;2024-02-21T01:05:02;9.10;99.90
25918;DHT22;13899;51.174;4.456;2024-02-21T01:07:28;9.40;99.90
25918;DHT22;13899;51.174;4.456;2024-02-21T01:09:54;9.40;99.90
25918;DHT22;13899;51.174;4.456;2024-02-21T01:12:19;9.30;99.90
25918;DHT22;13899;51.174;4.456;2024-02-21T01:14:45;9.20;99.90
25918;DHT22;13899;51.174;4.456;2024-02-21T01:17:11;9.20;99.90
25918;DHT22;13899;51.174;4.456;2024-02-21T01:19:37;9.20;99.90
25918;DHT22;13899;51.174;4.456;2024-02-21T01:22:02;9.10;99.90
25918;DHT22;13899;51.174;4.456;2024-02-21T01:24:28;9.10;99.90
25918;DHT22;13899;51.174;4.456;2024-02-21T01:26:53;9.10;99.90
25918;DHT22;13899;51.174;4.456;2024-02-21T01:29:19;9.20;99.90
25918;DHT22;13899;51.174;4.456;2024-02-21T01:31:44;9.20;99.90
25918;DHT22;13899;51.174;4.456;2024-02-21T01:34:10;9.20;99.90
25918;DHT22;13899;51.174;4.456;2024-02-21T01:36:35;9.10;99.90
25918;DHT22;13899;51.174;4.456;2024-02-21T01:39:01;9.20;99.90
25918;DHT22;13899;51.174;4.456;2024-02-21T01:41:26;9.20;99.90
25918;DHT22;13899;51.174;4.456;2024-02-21T01:43:54;9.10;99.90
25918;DHT22;13899;51.174;4.456;2024-02-21T01:46:20;9.10;99.90
25918;DHT22;13899;51.174;4.456;2024-02-21T01:48:45;9.00;99.90
25918;DHT22;13899;51.174;4.456;2024-02-21T01:51:11;9.10;99.90
25918;DHT22;13899;51.174;4.456;2024-02-21T01:53:37;9.10;99.90
25918;DHT22;13899;51.174;4.456;2024-02-21T01:56:05;9.00;99.90
25918;DHT22;13899;51.174;4.456;2024-02-21T01:58:31;9.00;99.90
25918;DHT22;13899;51.174;4.456;2024-02-21T02:00:59;9.00;99.90
25918;DHT22;13899;51.174;4.456;2024-02-21T02:03:24;9.00;99.90
25918;DHT22;13899;51.174;4.456;2024-02-21T02:05:51;9.10;99.90
25918;DHT22;13899;51.174;4.456;2024-02-21T02:08:17;9.10;99.90
25918;DHT22;13899;51.174;4.456;2024-02-21T02:10:43;9.00;99.90
25918;DHT22;13899;51.174;4.456;2024-02-21T02:13:09;9.00;99.90
25918;DHT22;13899;51.174;4.456;2024-02-21T02:15:47;8.90;99.90
25918;DHT22;13899;51.174;4.456;2024-02-21T02:18:13;9.00;99.90
25918;DHT22;13899;51.174;4.456;2024-02-21T02:20:39;9.00;99.90
25918;DHT22;13899;51.174;4.456;2024-02-21T02:23:12;9.00;99.90
25918;DHT22;13899;51.174;4.456;2024-02-21T02:25:39;9.00;99.90
25918;DHT22;13899;51.174;4.456;2024-02-21T02:28:08;9.00;99.90
25918;DHT22;13899;51.174;4.456;2024-02-21T02:30:34;9.00;99.90
25918;DHT22;13899;51.174;4.456;2024-02-21T02:33:04;8.90;99.90
25918;DHT22;13899;51.174;4.456;2024-02-21T02:35:30;9.00;99.90
25918;DHT22;13899;51.174;4.456;2024-02-21T02:37:55;8.90;99.90
25918;DHT22;13899;51.174;4.456;2024-02-21T02:40:21;8.90;99.90
25918;DHT22;13899;51.174;4.456;2024-02-21T02:42:46;8.90;99.90
25918;DHT22;13899;51.174;4.456;2024-02-21T02:45:14;8.90;99.90
25918;DHT22;13899;51.174;4.456;2024-02-21T02:47:40;8.90;99.90
25918;DHT22;13899;51.174;4.456;2024-02-21T02:50:06;8.90;99.90
25918;DHT22;13899;51.174;4.456;2024-02-21T02:52:31;8.90;99.90
25918;DHT22;13899;51.174;4.456;2024-02-21T02:54:57;8.90;99.90
25918;DHT22;13899;51.174;4.456;2024-02-21T02:57:22;8.80;99.90
25918;DHT22;13899;51.174;4.456;2024-02-21T02:59:48;8.90;99.90
25918;DHT22;13899;51.174;4.456;2024-02-21T03:02:14;8.90;99.90
25918;DHT22;13899;51.174;4.456;2024-02-21T03:04:40;8.80;99.90
25918;DHT22;13899;51.174;4.456;2024-02-21T03:07:05;8.80;99.90
25918;DHT22;13899;51.174;4.456;2024-02-21T03:09:31;8.90;99.90
25918;DHT22;13899;51.174;4.456;2024-02-21T03:11:57;8.90;99.90
25918;DHT22;13899;51.174;4.456;2024-02-21T03:14:28;8.90;99.90
25918;DHT22;13899;51.174;4.456;2024-02-21T03:16:53;8.90;99.90
25918;DHT22;13899;51.174;4.456;2024-02-21T03:19:19;8.90;99.90
25918;DHT22;13899;51.174;4.456;2024-02-21T03:21:44;8.90;99.90
25918;DHT22;13899;51.174;4.456;2024-02-21T03:24:10;8.90;99.90
25918;DHT22;13899;51.174;4.456;2024-02-21T03:26:35;8.90;99.90
25918;DHT22;13899;51.174;4.456;2024-02-21T03:29:01;9.00;99.90
25918;DHT22;13899;51.174;4.456;2024-02-21T03:31:26;9.00;99.90
25918;DHT22;13899;51.174;4.456;2024-02-21T03:33:52;9.00;99.90
25918;DHT22;13899;51.174;4.456;2024-02-21T03:36:18;9.10;99.90
25918;DHT22;13899;51.174;4.456;2024-02-21T03:38:43;9.10;99.90
25918;DHT22;13899;51.174;4.456;2024-02-21T03:41:09;9.00;99.90
25918;DHT22;13899;51.174;4.456;2024-02-21T03:43:37;9.10;99.90
25918;DHT22;13899;51.174;4.456;2024-02-21T03:46:02;9.00;99.90
25918;DHT22;13899;51.174;4.456;2024-02-21T03:48:28;9.00;99.90
25918;DHT22;13899;51.174;4.456;2024-02-21T03:50:53;9.00;99.90
25918;DHT22;13899;51.174;4.456;2024-02-21T03:53:19;9.10;99.90
25918;DHT22;13899;51.174;4.456;2024-02-21T03:55:44;9.10;99.90
25918;DHT22;13899;51.174;4.456;2024-02-21T03:58:10;9.10;99.90
25918;DHT22;13899;51.174;4.456;2024-02-21T04:00:35;9.10;99.90
25918;DHT22;13899;51.174;4.456;2024-02-21T04:03:01;9.00;99.90
25918;DHT22;13899;51.174;4.456;2024-02-21T04:05:26;9.10;99.90
25918;DHT22;13899;51.174;4.456;2024-02-21T04:07:52;9.20;99.90
25918;DHT22;13899;51.174;4.456;2024-02-21T04:10:18;9.10;99.90
25918;DHT22;13899;51.174;4.456;2024-02-21T04:12:43;8.90;99.90
25918;DHT22;13899;51.174;4.456;2024-02-21T04:15:09;9.00;99.90
25918;DHT22;13899;51.174;4.456;2024-02-21T04:17:36;9.00;99.90
25918;DHT22;13899;51.174;4.456;2024-02-21T04:20:03;9.20;99.90
25918;DHT22;13899;51.174;4.456;2024-02-21T04:22:31;9.20;99.90
25918;DHT22;13899;51.174;4.456;2024-02-21T04:24:56;9.10;99.90
25918;DHT22;13899;51.174;4.456;2024-02-21T04:27:22;9.10;99.90
25918;DHT22;13899;51.174;4.456;2024-02-21T04:29:48;9.10;99.90
25918;DHT22;13899;51.174;4.456;2024-02-21T04:32:13;9.10;99.90
25918;DHT22;13899;51.174;4.456;2024-02-21T04:34:40;9.20;99.90
25918;DHT22;13899;51.174;4.456;2024-02-21T04:37:06;9.10;99.90
25918;DHT22;13899;51.174;4.456;2024-02-21T04:39:31;9.10;99.90
25918;DHT22;13899;51.174;4.456;2024-02-21T04:41:57;9.10;99.90
25918;DHT22;13899;51.174;4.456;2024-02-21T04:44:22;9.00;99.90
25918;DHT22;13899;51.174;4.456;2024-02-21T04:46:48;9.00;99.90
25918;DHT22;13899;51.174;4.456;2024-02-21T04:49:13;8.90;99.90
25918;DHT22;13899;51.174;4.456;2024-02-21T04:51:41;8.90;99.90
25918;DHT22;13899;51.174;4.456;2024-02-21T04:54:06;8.90;99.90
25918;DHT22;13899;51.174;4.456;2024-02-21T04:56:32;8.90;99.90
25918;DHT22;13899;51.174;4.456;2024-02-21T04:58:57;9.00;99.90
25918;DHT22;13899;51.174;4.456;2024-02-21T05:01:23;8.90;99.90
25918;DHT22;13899;51.174;4.456;2024-02-21T05:03:48;8.90;99.90
25918;DHT22;13899;51.174;4.456;2024-02-21T05:06:14;8.80;99.90
25918;DHT22;13899;51.174;4.456;2024-02-21T05:08:39;8.90;99.90
25918;DHT22;13899;51.174;4.456;2024-02-21T05:11:05;8.90;99.90
25918;DHT22;13899;51.174;4.456;2024-02-21T05:13:30;8.80;99.90
25918;DHT22;13899;51.174;4.456;2024-02-21T05:15:56;8.80;99.90
25918;DHT22;13899;51.174;4.456;2024-02-21T05:18:21;8.80;99.90
25918;DHT22;13899;51.174;4.456;2024-02-21T05:20:47;8.70;99.90
25918;DHT22;13899;51.174;4.456;2024-02-21T05:23:12;8.70;99.90
25918;DHT22;13899;51.174;4.456;2024-02-21T05:25:38;8.70;99.90
25918;DHT22;13899;51.174;4.456;2024-02-21T05:28:03;8.80;99.90
25918;DHT22;13899;51.174;4.456;2024-02-21T05:30:31;8.70;99.90
25918;DHT22;13899;51.174;4.456;2024-02-21T05:32:57;8.80;99.90
25918;DHT22;13899;51.174;4.456;2024-02-21T05:35:28;8.70;99.90
25918;DHT22;13899;51.174;4.456;2024-02-21T05:37:54;8.70;99.90
25918;DHT22;13899;51.174;4.456;2024-02-21T05:40:20;8.80;99.90
25918;DHT22;13899;51.174;4.456;2024-02-21T05:42:45;8.60;99.90
25918;DHT22;13899;51.174;4.456;2024-02-21T05:45:11;8.70;99.90
25918;DHT22;13899;51.174;4.456;2024-02-21T05:47:36;8.70;99.90
25918;DHT22;13899;51.174;4.456;2024-02-21T05:50:02;8.60;99.90
25918;DHT22;13899;51.174;4.456;2024-02-21T05:52:27;8.70;99.90
25918;DHT22;13899;51.174;4.456;2024-02-21T05:54:53;8.70;99.90
25918;DHT22;13899;51.174;4.456;2024-02-21T05:57:18;8.60;99.90
25918;DHT22;13899;51.174;4.456;2024-02-21T05:59:44;8.60;99.90
25918;DHT22;13899;51.174;4.456;2024-02-21T06:02:09;8.80;99.90
25918;DHT22;13899;51.174;4.456;2024-02-21T06:04:35;8.80;99.90
25918;DHT22;13899;51.174;4.456;2024-02-21T06:07:01;8.70;99.90
25918;DHT22;13899;51.174;4.456;2024-02-21T06:09:27;8.60;99.90
25918;DHT22;13899;51.174;4.456;2024-02-21T06:11:52;8.70;99.90
25918;DHT22;13899;51.174;4.456;2024-02-21T06:14:19;8.70;99.90
25918;DHT22;13899;51.174;4.456;2024-02-21T06:16:44;8.70;99.90
25918;DHT22;13899;51.174;4.456;2024-02-21T06:19:10;8.70;99.90
25918;DHT22;13899;51.174;4.456;2024-02-21T06:21:35;8.60;99.90
25918;DHT22;13899;51.174;4.456;2024-02-21T06:24:01;8.70;99.90
25918;DHT22;13899;51.174;4.456;2024-02-21T06:26:26;8.70;99.90
25918;DHT22;13899;51.174;4.456;2024-02-21T06:28:52;8.70;99.90
25918;DHT22;13899;51.174;4.456;2024-02-21T06:31:17;8.70;99.90
25918;DHT22;13899;51.174;4.456;2024-02-21T06:33:43;8.80;99.90
25918;DHT22;13899;51.174;4.456;2024-02-21T06:36:09;8.90;99.90
25918;DHT22;13899;51.174;4.456;2024-02-21T06:38:34;8.80;99.90
25918;DHT22;13899;51.174;4.456;2024-02-21T06:40:59;8.90;99.90
25918;DHT22;13899;51.174;4.456;2024-02-21T06:43:27;8.90;99.90
25918;DHT22;13899;51.174;4.456;2024-02-21T06:45:53;8.90;99.90
25918;DHT22;13899;51.174;4.456;2024-02-21T06:48:19;8.80;99.90
25918;DHT22;13899;51.174;4.456;2024-02-21T06:50:45;8.80;99.90
25918;DHT22;13899;51.174;4.456;2024-02-21T06:53:10;8.80;99.90
25918;DHT22;13899;51.174;4.456;2024-02-21T06:55:36;8.90;99.90
25918;DHT22;13899;51.174;4.456;2024-02-21T06:58:01;8.80;99.90
25918;DHT22;13899;51.174;4.456;2024-02-21T07:00:28;8.90;99.90
25918;DHT22;13899;51.174;4.456;2024-02-21T07:02:53;8.90;99.90
25918;DHT22;13899;51.174;4.456;2024-02-21T07:05:19;8.90;99.90
25918;DHT22;13899;51.174;4.456;2024-02-21T07:07:44;8.90;99.90
25918;DHT22;13899;51.174;4.456;2024-02-21T07:10:10;8.90;99.90
25918;DHT22;13899;51.174;4.456;2024-02-21T07:12:36;8.80;99.90
25918;DHT22;13899;51.174;4.456;2024-02-21T07:15:04;9.00;99.90
25918;DHT22;13899;51.174;4.456;2024-02-21T07:17:30;9.00;99.90
25918;DHT22;13899;51.174;4.456;2024-02-21T07:19:55;9.00;99.90
25918;DHT22;13899;51.174;4.456;2024-02-21T07:22:24;9.00;99.90
25918;DHT22;13899;51.174;4.456;2024-02-21T07:24:49;9.00;99.90
25918;DHT22;13899;51.174;4.456;2024-02-21T07:27:15;9.00;99.90
25918;DHT22;13899;51.174;4.456;2024-02-21T07:29:41;9.00;99.90
25918;DHT22;13899;51.174;4.456;2024-02-21T07:32:06;9.10;99.90
25918;DHT22;13899;51.174;4.456;2024-02-21T07:34:31;9.00;99.90
25918;DHT22;13899;51.174;4.456;2024-02-21T07:36:57;9.10;99.90
25918;DHT22;13899;51.174;4.456;2024-02-21T07:39:23;9.10;99.90
25918;DHT22;13899;51.174;4.456;2024-02-21T07:41:48;9.20;99.90
25918;DHT22;13899;51.174;4.456;2024-02-21T07:44:14;9.20;99.90
25918;DHT22;13899;51.174;4.456;2024-02-21T07:46:40;9.20;99.90
25918;DHT22;13899;51.174;4.456;2024-02-21T07:49:05;9.20;99.90
25918;DHT22;13899;51.174;4.456;2024-02-21T07:51:31;9.20;99.90
25918;DHT22;13899;51.174;4.456;2024-02-21T07:53:56;9.20;99.90
25918;DHT22;13899;51.174;4.456;2024-02-21T07:56:22;9.30;99.90
25918;DHT22;13899;51.174;4.456;2024-02-21T07:58:47;9.30;99.90
25918;DHT22;13899;51.174;4.456;2024-02-21T08:01:18;9.20;99.90
25918;DHT22;13899;51.174;4.456;2024-02-21T08:03:43;9.20;99.90
25918;DHT22;13899;51.174;4.456;2024-02-21T08:06:11;9.20;99.90
25918;DHT22;13899;51.174;4.456;2024-02-21T08:08:36;9.30;99.90
25918;DHT22;13899;51.174;4.456;2024-02-21T08:11:02;9.20;99.90
25918;DHT22;13899;51.174;4.456;2024-02-21T08:13:27;9.20;99.90
25918;DHT22;13899;51.174;4.456;2024-02-21T08:15:54;9.10;99.90
25918;DHT22;13899;51.174;4.456;2024-02-21T08:18:19;9.10;99.90
25918;DHT22;13899;51.174;4.456;2024-02-21T08:20:45;9.10;99.90
25918;DHT22;13899;51.174;4.456;2024-02-21T08:23:10;9.00;99.90
25918;DHT22;13899;51.174;4.456;2024-02-21T08:25:36;9.00;99.90
25918;DHT22;13899;51.174;4.456;2024-02-21T08:28:01;9.00;99.90
25918;DHT22;13899;51.174;4.456;2024-02-21T08:30:27;9.00;99.90
25918;DHT22;13899;51.174;4.456;2024-02-21T08:32:53;9.00;99.90
25918;DHT22;13899;51.174;4.456;2024-02-21T08:35:21;9.00;99.90
25918;DHT22;13899;51.174;4.456;2024-02-21T08:37:47;9.00;99.90
25918;DHT22;13899;51.174;4.456;2024-02-21T08:40:13;9.00;99.90
25918;DHT22;13899;51.174;4.456;2024-02-21T08:42:42;9.10;99.90
25918;DHT22;13899;51.174;4.456;2024-02-21T08:45:08;9.10;99.90
25918;DHT22;13899;51.174;4.456;2024-02-21T08:47:34;9.10;99.90
25918;DHT22;13899;51.174;4.456;2024-02-21T08:50:01;9.10;99.90
25918;DHT22;13899;51.174;4.456;2024-02-21T08:52:26;9.10;99.90
25918;DHT22;13899;51.174;4.456;2024-02-21T08:54:52;9.00;99.90
25918;DHT22;13899;51.174;4.456;2024-02-21T08:57:19;9.20;99.90
25918;DHT22;13899;51.174;4.456;2024-02-21T08:59:44;9.20;99.90
25918;DHT22;13899;51.174;4.456;2024-02-21T09:02:10;9.20;99.90
25918;DHT22;13899;51.174;4.456;2024-02-21T09:04:35;9.20;99.90
25918;DHT22;13899;51.174;4.456;2024-02-21T09:07:01;9.30;99.90
25918;DHT22;13899;51.174;4.456;2024-02-21T09:09:26;9.40;99.90
25918;DHT22;13899;51.174;4.456;2024-02-21T09:11:53;9.50;99.90
25918;DHT22;13899;51.174;4.456;2024-02-21T09:14:19;9.50;99.90
25918;DHT22;13899;51.174;4.456;2024-02-21T09:16:44;9.50;99.90
25918;DHT22;13899;51.174;4.456;2024-02-21T09:19:10;9.50;99.90
25918;DHT22;13899;51.174;4.456;2024-02-21T09:21:36;9.50;99.90
25918;DHT22;13899;51.174;4.456;2024-02-21T09:24:02;9.70;99.90
25918;DHT22;13899;51.174;4.456;2024-02-21T09:26:28;9.60;99.90
25918;DHT22;13899;51.174;4.456;2024-02-21T09:28:53;9.70;99.90
25918;DHT22;13899;51.174;4.456;2024-02-21T09:31:19;9.80;99.90
25918;DHT22;13899;51.174;4.456;2024-02-21T09:33:45;9.70;99.90
25918;DHT22;13899;51.174;4.456;2024-02-21T09:36:10;9.80;99.90
25918;DHT22;13899;51.174;4.456;2024-02-21T09:38:36;9.80;99.90
25918;DHT22;13899;51.174;4.456;2024-02-21T09:41:04;9.90;99.90
25918;DHT22;13899;51.174;4.456;2024-02-21T09:43:33;9.90;99.90
25918;DHT22;13899;51.174;4.456;2024-02-21T09:45:59;10.00;99.90
25918;DHT22;13899;51.174;4.456;2024-02-21T09:48:48;9.90;99.90
25918;DHT22;13899;51.174;4.456;2024-02-21T09:51:11;10.00;99.90
25918;DHT22;13899;51.174;4.456;2024-02-21T09:53:38;10.00;99.90
25918;DHT22;13899;51.174;4.456;2024-02-21T09:56:05;10.20;99.90
25918;DHT22;13899;51.174;4.456;2024-02-21T09:58:32;10.20;99.90
25918;DHT22;13899;51.174;4.456;2024-02-21T10:00:58;10.20;99.90
25918;DHT22;13899;51.174;4.456;2024-02-21T10:03:25;10.20;99.90
25918;DHT22;13899;51.174;4.456;2024-02-21T10:05:51;10.20;99.90
25918;DHT22;13899;51.174;4.456;2024-02-21T10:08:16;10.20;99.90
25918;DHT22;13899;51.174;4.456;2024-02-21T10:10:45;10.20;99.90
25918;DHT22;13899;51.174;4.456;2024-02-21T10:13:24;10.20;99.90
25918;DHT22;13899;51.174;4.456;2024-02-21T10:16:00;10.50;99.90
25918;DHT22;13899;51.174;4.456;2024-02-21T10:18:25;10.60;99.90
25918;DHT22;13899;51.174;4.456;2024-02-21T10:20:59;10.30;99.90
25918;DHT22;13899;51.174;4.456;2024-02-21T10:23:25;10.40;99.90
25918;DHT22;13899;51.174;4.456;2024-02-21T10:25:50;10.30;99.90
25918;DHT22;13899;51.174;4.456;2024-02-21T10:28:17;10.40;99.90
25918;DHT22;13899;51.174;4.456;2024-02-21T10:30:50;10.30;99.90
25918;DHT22;13899;51.174;4.456;2024-02-21T10:33:16;10.40;99.90
25918;DHT22;13899;51.174;4.456;2024-02-21T10:35:41;10.60;99.90
25918;DHT22;13899;51.174;4.456;2024-02-21T10:38:08;10.70;99.90
25918;DHT22;13899;51.174;4.456;2024-02-21T10:40:33;10.50;99.90
25918;DHT22;13899;51.174;4.456;2024-02-21T10:42:59;10.40;99.90
25918;DHT22;13899;51.174;4.456;2024-02-21T10:45:28;10.40;99.90
25918;DHT22;13899;51.174;4.456;2024-02-21T10:47:55;10.40;99.90
25918;DHT22;13899;51.174;4.456;2024-02-21T10:50:21;10.40;99.90
25918;DHT22;13899;51.174;4.456;2024-02-21T10:52:51;10.30;99.90
25918;DHT22;13899;51.174;4.456;2024-02-21T10:55:24;10.40;99.90
25918;DHT22;13899;51.174;4.456;2024-02-21T10:57:52;10.40;99.90
25918;DHT22;13899;51.174;4.456;2024-02-21T11:00:18;10.60;99.90
25918;DHT22;13899;51.174;4.456;2024-02-21T11:02:44;10.60;99.90
25918;DHT22;13899;51.174;4.456;2024-02-21T11:05:10;10.60;99.90
25918;DHT22;13899;51.174;4.456;2024-02-21T11:07:37;10.50;99.90
25918;DHT22;13899;51.174;4.456;2024-02-21T11:10:03;10.60;99.90
25918;DHT22;13899;51.174;4.456;2024-02-21T11:12:32;10.50;99.90
25918;DHT22;13899;51.174;4.456;2024-02-21T11:15:05;10.40;99.90
25918;DHT22;13899;51.174;4.456;2024-02-21T11:17:31;10.40;99.90
25918;DHT22;13899;51.174;4.456;2024-02-21T11:19:56;10.50;99.90
25918;DHT22;13899;51.174;4.456;2024-02-21T11:22:22;10.50;99.90
25918;DHT22;13899;51.174;4.456;2024-02-21T11:24:49;10.50;99.90
25918;DHT22;13899;51.174;4.456;2024-02-21T11:27:15;10.50;99.90
25918;DHT22;13899;51.174;4.456;2024-02-21T11:29:57;10.50;99.90
25918;DHT22;13899;51.174;4.456;2024-02-21T11:32:23;10.50;99.90
25918;DHT22;13899;51.174;4.456;2024-02-21T11:37:23;10.50;99.90
25918;DHT22;13899;51.174;4.456;2024-02-21T11:39:49;10.40;99.90
25918;DHT22;13899;51.174;4.456;2024-02-21T11:42:15;10.50;99.90
25918;DHT22;13899;51.174;4.456;2024-02-21T11:44:40;10.60;99.90
25918;DHT22;13899;51.174;4.456;2024-02-21T11:47:08;10.60;99.90
25918;DHT22;13899;51.174;4.456;2024-02-21T11:49:37;10.60;99.90
25918;DHT22;13899;51.174;4.456;2024-02-21T11:52:06;10.50;99.90
25918;DHT22;13899;51.174;4.456;2024-02-21T11:54:32;10.40;99.90
25918;DHT22;13899;51.174;4.456;2024-02-21T11:56:58;10.40;99.90
25918;DHT22;13899;51.174;4.456;2024-02-21T11:59:24;10.40;99.90
25918;DHT22;13899;51.174;4.456;2024-02-21T12:01:49;10.50;99.90
25918;DHT22;13899;51.174;4.456;2024-02-21T12:04:17;10.50;99.90
25918;DHT22;13899;51.174;4.456;2024-02-21T12:06:44;10.60;99.90
25918;DHT22;13899;51.174;4.456;2024-02-21T12:09:13;10.40;99.90
25918;DHT22;13899;51.174;4.456;2024-02-21T12:11:39;10.40;99.90
25918;DHT22;13899;51.174;4.456;2024-02-21T12:14:04;10.60;99.90
25918;DHT22;13899;51.174;4.456;2024-02-21T12:16:30;10.50;99.90
25918;DHT22;13899;51.174;4.456;2024-02-21T12:18:56;10.50;99.90
25918;DHT22;13899;51.174;4.456;2024-02-21T12:21:25;10.40;99.90
25918;DHT22;13899;51.174;4.456;2024-02-21T12:23:53;10.50;99.90
25918;DHT22;13899;51.174;4.456;2024-02-21T12:26:18;10.50;99.90
25918;DHT22;13899;51.174;4.456;2024-02-21T12:28:44;10.40;99.90
25918;DHT22;13899;51.174;4.456;2024-02-21T12:31:10;10.40;99.90
25918;DHT22;13899;51.174;4.456;2024-02-21T12:33:35;10.50;99.90
25918;DHT22;13899;51.174;4.456;2024-02-21T12:36:01;10.40;99.90
25918;DHT22;13899;51.174;4.456;2024-02-21T12:38:26;10.40;99.90
25918;DHT22;13899;51.174;4.456;2024-02-21T12:40:52;10.40;99.90
25918;DHT22;13899;51.174;4.456;2024-02-21T12:43:17;10.40;99.90
25918;DHT22;13899;51.174;4.456;2024-02-21T12:45:43;10.40;99.90
25918;DHT22;13899;51.174;4.456;2024-02-21T12:48:09;10.40;99.90
25918;DHT22;13899;51.174;4.456;2024-02-21T12:50:34;10.50;99.90
25918;DHT22;13899;51.174;4.456;2024-02-21T12:53:00;10.50;99.90
25918;DHT22;13899;51.174;4.456;2024-02-21T12:55:25;10.50;99.90
25918;DHT22;13899;51.174;4.456;2024-02-21T12:57:51;10.50;99.90
25918;DHT22;13899;51.174;4.456;2024-02-21T13:00:16;10.70;99.90
25918;DHT22;13899;51.174;4.456;2024-02-21T13:02:42;10.60;99.90
25918;DHT22;13899;51.174;4.456;2024-02-21T13:05:08;10.60;99.90
25918;DHT22;13899;51.174;4.456;2024-02-21T13:07:33;10.60;99.90
25918;DHT22;13899;51.174;4.456;2024-02-21T13:09:59;10.70;99.90
25918;DHT22;13899;51.174;4.456;2024-02-21T13:12:25;10.70;99.90
25918;DHT22;13899;51.174;4.456;2024-02-21T13:14:53;10.70;99.90
25918;DHT22;13899;51.174;4.456;2024-02-21T13:17:19;10.70;99.90
25918;DHT22;13899;51.174;4.456;2024-02-21T13:19:45;10.70;99.90
25918;DHT22;13899;51.174;4.456;2024-02-21T13:22:10;10.70;99.90
25918;DHT22;13899;51.174;4.456;2024-02-21T13:24:36;10.70;99.90
25918;DHT22;13899;51.174;4.456;2024-02-21T13:27:02;10.80;99.90
25918;DHT22;13899;51.174;4.456;2024-02-21T13:29:28;10.80;99.90
25918;DHT22;13899;51.174;4.456;2024-02-21T13:31:54;10.80;99.90
25918;DHT22;13899;51.174;4.456;2024-02-21T13:34:19;10.90;99.90
25918;DHT22;13899;51.174;4.456;2024-02-21T13:36:45;11.00;99.90
25918;DHT22;13899;51.174;4.456;2024-02-21T13:39:10;11.00;99.90
25918;DHT22;13899;51.174;4.456;2024-02-21T13:41:41;11.00;99.90
25918;DHT22;13899;51.174;4.456;2024-02-21T13:44:07;11.00;99.90
25918;DHT22;13899;51.174;4.456;2024-02-21T13:46:34;10.90;99.90
25918;DHT22;13899;51.174;4.456;2024-02-21T13:49:04;10.80;99.90
25918;DHT22;13899;51.174;4.456;2024-02-21T13:51:30;10.80;99.90
25918;DHT22;13899;51.174;4.456;2024-02-21T13:53:56;10.70;99.90
25918;DHT22;13899;51.174;4.456;2024-02-21T13:56:22;10.60;99.90
25918;DHT22;13899;51.174;4.456;2024-02-21T13:58:47;10.50;99.90
25918;DHT22;13899;51.174;4.456;2024-02-21T14:01:12;10.50;99.90
25918;DHT22;13899;51.174;4.456;2024-02-21T14:03:38;10.40;99.90
25918;DHT22;13899;51.174;4.456;2024-02-21T14:06:04;10.40;99.90
25918;DHT22;13899;51.174;4.456;2024-02-21T14:08:30;10.30;99.90
25918;DHT22;13899;51.174;4.456;2024-02-21T14:10:56;10.30;99.90
25918;DHT22;13899;51.174;4.456;2024-02-21T14:13:24;10.20;99.90
25918;DHT22;13899;51.174;4.456;2024-02-21T14:15:49;10.10;99.90
25918;DHT22;13899;51.174;4.456;2024-02-21T14:18:15;10.00;99.90
25918;DHT22;13899;51.174;4.456;2024-02-21T14:20:41;9.90;99.90
25918;DHT22;13899;51.174;4.456;2024-02-21T14:23:06;9.90;99.90
25918;DHT22;13899;51.174;4.456;2024-02-21T14:25:32;9.80;99.90
25918;DHT22;13899;51.174;4.456;2024-02-21T14:27:58;9.80;99.90
25918;DHT22;13899;51.174;4.456;2024-02-21T14:30:25;9.80;99.90
25918;DHT22;13899;51.174;4.456;2024-02-21T14:32:51;9.70;99.90
25918;DHT22;13899;51.174;4.456;2024-02-21T14:35:17;9.70;99.90
25918;DHT22;13899;51.174;4.456;2024-02-21T14:37:42;9.70;99.90
25918;DHT22;13899;51.174;4.456;2024-02-21T14:40:08;9.70;99.90
25918;DHT22;13899;51.174;4.456;2024-02-21T14:42:33;9.60;99.90
25918;DHT22;13899;51.174;4.456;2024-02-21T14:45:00;9.50;99.90
25918;DHT22;13899;51.174;4.456;2024-02-21T14:47:30;9.50;99.90
25918;DHT22;13899;51.174;4.456;2024-02-21T14:49:55;9.50;99.90
25918;DHT22;13899;51.174;4.456;2024-02-21T14:52:21;9.50;99.90
25918;DHT22;13899;51.174;4.456;2024-02-21T14:54:47;9.50;99.90
25918;DHT22;13899;51.174;4.456;2024-02-21T14:57:20;9.50;99.90
25918;DHT22;13899;51.174;4.456;2024-02-21T14:59:46;9.40;99.90
25918;DHT22;13899;51.174;4.456;2024-02-21T15:02:11;9.50;99.90
25918;DHT22;13899;51.174;4.456;2024-02-21T15:04:37;9.50;99.90
25918;DHT22;13899;51.174;4.456;2024-02-21T15:07:02;9.40;99.90
25918;DHT22;13899;51.174;4.456;2024-02-21T15:09:27;9.40;99.90
25918;DHT22;13899;51.174;4.456;2024-02-21T15:11:53;9.40;99.90
25918;DHT22;13899;51.174;4.456;2024-02-21T15:14:19;9.40;99.90
25918;DHT22;13899;51.174;4.456;2024-02-21T15:16:45;9.30;99.90
25918;DHT22;13899;51.174;4.456;2024-02-21T15:19:11;9.30;99.90
25918;DHT22;13899;51.174;4.456;2024-02-21T15:21:36;9.40;99.90
25918;DHT22;13899;51.174;4.456;2024-02-21T15:24:02;9.30;99.90
25918;DHT22;13899;51.174;4.456;2024-02-21T15:26:31;9.30;99.90
25918;DHT22;13899;51.174;4.456;2024-02-21T15:28:57;9.30;99.90
25918;DHT22;13899;51.174;4.456;2024-02-21T15:31:23;9.20;99.90
25918;DHT22;13899;51.174;4.456;2024-02-21T15:33:49;9.30;99.90
25918;DHT22;13899;51.174;4.456;2024-02-21T15:36:14;9.30;99.90
25918;DHT22;13899;51.174;4.456;2024-02-21T15:38:41;9.30;99.90